Time;durP1;ratioP1;P1;durP2;ratioP2;P2;SDS_P1;SDS_P2;PMS_P1;PMS_P2;Temp;Humidity;BMP_temperature;BMP_pressure;BME280_temperature;BME280_humidity;BME280_pressure;Samples;Min_cycle;Max_cycle;Signal;HPM_P1;HPM_P2
2022/02/16 00:00:13;;;;;;;;;0.33;0.33;;;;;;;;5075513;27;47623;-94
2022/02/16 00:02:39;;;;;;;;;1.00;1.00;;;;;;;;5065477;27;45500;-91
2022/02/16 00:05:08;;;;;;;;;1.33;1.33;;;;;;;;5061355;27;45403;-92
2022/02/16 00:07:33;;;;;;;;;2.00;0.33;;;;;;;;5058933;28;45570;-92
2022/02/16 00:09:58;;;;;;;;;1.67;1.00;;;;;;;;5080773;27;48348;-92
2022/02/16 00:12:24;;;;;;;;;1.00;1.00;;;;;;;;5088539;27;45371;-92
2022/02/16 00:14:50;;;;;;;;;0.00;0.00;;;;;;;;5078049;27;45497;-92
2022/02/16 00:17:15;;;;;;;;;0.67;0.67;;;;;;;;5091993;27;45965;-95
2022/02/16 00:19:40;;;;;;;;;0.00;0.00;;;;;;;;5076442;28;45355;-92
2022/02/16 00:22:05;;;;;;;;;1.00;1.00;;;;;;;;5074654;27;45849;-92
2022/02/16 00:24:31;;;;;;;;;0.33;0.00;;;;;;;;5097129;27;45296;-92
2022/02/16 00:26:56;;;;;;;;;0.00;0.00;;;;;;;;5083485;27;45589;-93
2022/02/16 00:29:21;;;;;;;;;0.00;0.00;;;;;;;;5089605;27;48363;-93
2022/02/16 00:31:47;;;;;;;;;0.00;0.00;;;;;;;;5076328;27;45363;-93
2022/02/16 00:34:12;;;;;;;;;0.33;0.33;;;;;;;;5078194;27;45368;-92
2022/02/16 00:36:37;;;;;;;;;0.00;0.00;;;;;;;;5077874;27;45515;-93
2022/02/16 00:39:03;;;;;;;;;0.67;0.67;;;;;;;;5093793;27;46355;-92
2022/02/16 00:41:28;;;;;;;;;0.00;0.00;;;;;;;;5077965;27;45473;-94
2022/02/16 00:43:53;;;;;;;;;0.67;0.67;;;;;;;;5091188;27;45386;-93
2022/02/16 00:46:19;;;;;;;;;0.00;0.00;;;;;;;;5078351;27;45441;-93
2022/02/16 00:48:44;;;;;;;;;0.00;0.00;;;;;;;;5078131;27;47822;-92
2022/02/16 00:51:09;;;;;;;;;0.00;0.00;;;;;;;;5076785;27;45277;-92
2022/02/16 00:53:34;;;;;;;;;0.00;0.00;;;;;;;;5090201;27;45338;-92
2022/02/16 00:56:00;;;;;;;;;0.00;0.00;;;;;;;;5074162;27;45630;-92
2022/02/16 00:58:25;;;;;;;;;0.00;0.00;;;;;;;;5057221;28;47486;-92
2022/02/16 01:00:50;;;;;;;;;0.00;0.00;;;;;;;;5077835;27;45420;-92
2022/02/16 01:03:16;;;;;;;;;1.00;1.00;;;;;;;;5077799;27;45248;-92
2022/02/16 01:05:41;;;;;;;;;0.00;0.00;;;;;;;;5074953;28;45538;-92
2022/02/16 01:08:07;;;;;;;;;0.33;0.33;;;;;;;;5074317;27;48290;-94
2022/02/16 01:10:32;;;;;;;;;0.00;0.00;;;;;;;;5075135;28;45532;-93
2022/02/16 01:12:57;;;;;;;;;0.00;0.00;;;;;;;;5068263;27;45719;-92
2022/02/16 01:15:23;;;;;;;;;1.00;0.00;;;;;;;;5077900;27;45587;-92
2022/02/16 01:17:48;;;;;;;;;1.00;0.00;;;;;;;;5076556;27;47845;-92
2022/02/16 01:20:13;;;;;;;;;0.00;0.00;;;;;;;;5078505;27;45844;-91
2022/02/16 01:22:38;;;;;;;;;0.00;0.00;;;;;;;;5077936;27;45414;-93
2022/02/16 01:25:04;;;;;;;;;1.00;0.00;;;;;;;;5062262;27;45460;-93
2022/02/16 01:27:30;;;;;;;;;0.00;0.00;;;;;;;;5086563;27;47305;-92
2022/02/16 01:29:55;;;;;;;;;0.00;0.00;;;;;;;;5087846;27;45601;-93
2022/02/16 01:32:20;;;;;;;;;0.00;0.00;;;;;;;;5078270;27;45904;-93
2022/02/16 01:34:45;;;;;;;;;1.00;0.00;;;;;;;;5077669;27;45441;-92
2022/02/16 01:37:11;;;;;;;;;2.00;0.00;;;;;;;;5078027;27;48314;-92
2022/02/16 01:39:36;;;;;;;;;0.00;0.00;;;;;;;;5080971;27;45569;-93
2022/02/16 01:42:02;;;;;;;;;0.00;0.00;;;;;;;;5079075;27;45592;-91
2022/02/16 01:44:27;;;;;;;;;0.00;0.00;;;;;;;;5096396;27;45448;-93
2022/02/16 01:46:54;;;;;;;;;0.00;0.00;;;;;;;;5090681;27;47180;-93
2022/02/16 01:49:19;;;;;;;;;0.00;0.00;;;;;;;;5074613;28;45658;-93
2022/02/16 01:51:45;;;;;;;;;1.00;0.00;;;;;;;;5074009;27;45465;-95
2022/02/16 01:54:11;;;;;;;;;0.00;0.00;;;;;;;;5077631;27;45785;-94
2022/02/16 01:56:36;;;;;;;;;0.00;0.00;;;;;;;;5072150;27;48194;-94
2022/02/16 01:59:04;;;;;;;;;0.00;0.00;;;;;;;;5074633;27;45564;-95
2022/02/16 02:01:38;;;;;;;;;0.00;0.00;;;;;;;;5077362;27;45367;-94
2022/02/16 02:04:03;;;;;;;;;0.00;0.00;;;;;;;;5078268;27;45717;-94
2022/02/16 02:06:29;;;;;;;;;0.00;0.00;;;;;;;;5078082;27;47326;-94
2022/02/16 02:08:59;;;;;;;;;2.00;0.00;;;;;;;;5077752;27;45593;-94
2022/02/16 02:11:24;;;;;;;;;0.33;0.00;;;;;;;;5077410;27;45478;-94
2022/02/16 02:13:54;;;;;;;;;0.00;0.00;;;;;;;;5078916;27;45560;-94
2022/02/16 02:16:21;;;;;;;;;0.00;0.00;;;;;;;;5084950;27;46969;-93
2022/02/16 02:18:47;;;;;;;;;0.00;0.00;;;;;;;;5077548;27;45791;-95
2022/02/16 02:21:12;;;;;;;;;0.00;0.00;;;;;;;;5086781;27;45486;-95
2022/02/16 02:23:40;;;;;;;;;0.00;0.00;;;;;;;;5077849;27;45604;-94
2022/02/16 02:26:12;;;;;;;;;0.00;0.00;;;;;;;;5077565;27;47136;-94
2022/02/16 02:28:38;;;;;;;;;1.00;0.00;;;;;;;;5097366;27;45728;-94
2022/02/16 02:31:12;;;;;;;;;0.00;0.00;;;;;;;;5078171;27;45635;-94
2022/02/16 02:33:45;;;;;;;;;0.00;0.00;;;;;;;;5077611;27;45256;-94
2022/02/16 02:36:11;;;;;;;;;0.00;0.00;;;;;;;;5086059;27;47351;-95
2022/02/16 02:38:38;;;;;;;;;0.00;0.00;;;;;;;;5077099;27;45498;-94
2022/02/16 02:41:04;;;;;;;;;0.00;0.00;;;;;;;;5080493;27;45379;-94
2022/02/16 02:43:37;;;;;;;;;0.00;0.00;;;;;;;;5078573;27;45524;-94
2022/02/16 02:46:02;;;;;;;;;0.00;0.00;;;;;;;;5077767;27;47436;-92
2022/02/16 02:48:28;;;;;;;;;1.00;1.00;;;;;;;;5093624;27;45438;-94
2022/02/16 02:50:53;;;;;;;;;0.00;0.00;;;;;;;;5078206;27;45411;-93
2022/02/16 02:53:19;;;;;;;;;0.00;0.00;;;;;;;;5082348;27;45216;-92
2022/02/16 02:55:44;;;;;;;;;0.00;0.00;;;;;;;;5082716;27;47993;-92
2022/02/16 02:58:09;;;;;;;;;0.00;0.00;;;;;;;;5077544;27;45391;-93
2022/02/16 03:00:35;;;;;;;;;0.00;0.00;;;;;;;;5094135;27;45341;-94
2022/02/16 03:03:00;;;;;;;;;0.00;0.00;;;;;;;;5098676;27;45322;-93
2022/02/16 03:05:25;;;;;;;;;1.00;0.00;;;;;;;;5122818;27;47259;-93
2022/02/16 03:07:51;;;;;;;;;0.33;0.00;;;;;;;;5123581;27;45028;-93
2022/02/16 03:10:17;;;;;;;;;0.00;0.00;;;;;;;;5117068;27;44863;-93
2022/02/16 03:12:42;;;;;;;;;0.00;0.00;;;;;;;;5110348;27;44908;-94
2022/02/16 03:15:07;;;;;;;;;0.00;0.00;;;;;;;;5090797;27;47135;-93
2022/02/16 03:17:33;;;;;;;;;0.00;0.00;;;;;;;;5080401;27;45706;-92
2022/02/16 03:19:58;;;;;;;;;0.33;0.33;;;;;;;;5082891;27;45926;-93
2022/02/16 03:22:23;;;;;;;;;0.00;0.00;;;;;;;;5081585;27;45308;-92
2022/02/16 03:24:48;;;;;;;;;0.00;0.00;;;;;;;;5107116;27;46294;-92
2022/02/16 03:27:14;;;;;;;;;0.00;0.00;;;;;;;;5076168;28;45486;-93
2022/02/16 03:29:39;;;;;;;;;0.00;0.00;;;;;;;;5066836;27;45501;-92
2022/02/16 03:32:04;;;;;;;;;1.00;0.00;;;;;;;;5078999;27;45833;-92
2022/02/16 03:34:30;;;;;;;;;1.00;0.00;;;;;;;;5079889;27;47348;-92
2022/02/16 03:36:55;;;;;;;;;1.33;0.00;;;;;;;;5077896;27;45955;-91
2022/02/16 03:39:21;;;;;;;;;0.00;0.00;;;;;;;;5081810;27;45574;-92
2022/02/16 03:41:46;;;;;;;;;0.00;0.00;;;;;;;;5086738;27;45599;-91
2022/02/16 03:44:11;;;;;;;;;0.00;0.00;;;;;;;;5076871;27;48240;-91
2022/02/16 03:46:36;;;;;;;;;0.00;0.00;;;;;;;;5079389;27;46002;-92
2022/02/16 03:49:02;;;;;;;;;0.00;0.00;;;;;;;;5078869;27;45446;-92
2022/02/16 03:51:27;;;;;;;;;0.00;0.00;;;;;;;;5083301;27;45418;-92
2022/02/16 03:53:52;;;;;;;;;0.00;0.00;;;;;;;;5078446;27;47216;-91
2022/02/16 03:56:17;;;;;;;;;0.00;0.00;;;;;;;;5075802;27;45505;-91
2022/02/16 03:58:43;;;;;;;;;11.00;4.00;;;;;;;;5079052;27;45502;-92
2022/02/16 04:01:08;;;;;;;;;0.00;0.00;;;;;;;;5096422;27;45662;-92
2022/02/16 04:03:33;;;;;;;;;0.00;0.00;;;;;;;;5098031;27;46200;-92
2022/02/16 04:05:58;;;;;;;;;0.00;0.00;;;;;;;;5079280;27;45531;-92
2022/02/16 04:08:24;;;;;;;;;0.00;0.00;;;;;;;;5075657;27;45617;-92
2022/02/16 04:10:49;;;;;;;;;1.00;0.00;;;;;;;;5060126;27;45327;-93
2022/02/16 04:13:14;;;;;;;;;0.00;0.00;;;;;;;;5078741;27;47022;-92
2022/02/16 04:15:39;;;;;;;;;0.00;0.00;;;;;;;;5078769;27;45363;-92
2022/02/16 04:18:05;;;;;;;;;0.00;0.00;;;;;;;;5080321;27;45399;-92
2022/02/16 04:20:30;;;;;;;;;0.00;0.00;;;;;;;;5077236;27;45491;-92
2022/02/16 04:22:55;;;;;;;;;0.00;0.00;;;;;;;;5078572;27;47315;-92
2022/02/16 04:25:21;;;;;;;;;0.00;0.00;;;;;;;;5079269;27;45939;-92
2022/02/16 04:27:46;;;;;;;;;0.00;0.00;;;;;;;;5078437;27;45458;-92
2022/02/16 04:30:12;;;;;;;;;0.33;0.00;;;;;;;;5078106;27;45601;-92
2022/02/16 04:32:38;;;;;;;;;0.00;0.00;;;;;;;;5078873;27;46383;-93
2022/02/16 04:35:04;;;;;;;;;0.00;0.00;;;;;;;;5075639;27;45438;-92
2022/02/16 04:37:29;;;;;;;;;1.00;0.00;;;;;;;;5058407;28;45490;-93
2022/02/16 04:39:54;;;;;;;;;0.00;0.00;;;;;;;;5085985;27;45497;-92
2022/02/16 04:42:20;;;;;;;;;0.00;0.00;;;;;;;;5077339;27;47240;-92
2022/02/16 04:44:45;;;;;;;;;0.00;0.00;;;;;;;;5078703;27;45427;-92
2022/02/16 04:47:10;;;;;;;;;0.00;0.00;;;;;;;;5096174;27;45381;-92
2022/02/16 04:49:35;;;;;;;;;1.00;0.00;;;;;;;;5078512;27;45495;-92
2022/02/16 04:52:01;;;;;;;;;0.00;0.00;;;;;;;;5077939;27;46988;-90
2022/02/16 04:54:26;;;;;;;;;0.00;0.00;;;;;;;;5073751;28;50916;-92
2022/02/16 04:56:51;;;;;;;;;0.67;0.00;;;;;;;;5067468;27;45317;-92
2022/02/16 04:59:16;;;;;;;;;0.00;0.00;;;;;;;;5078379;27;45402;-92
2022/02/16 05:01:42;;;;;;;;;0.00;0.00;;;;;;;;5078581;27;48101;-92
2022/02/16 05:04:08;;;;;;;;;0.00;0.00;;;;;;;;5078707;27;45473;-93
2022/02/16 05:06:34;;;;;;;;;0.00;0.00;;;;;;;;5078745;27;45487;-92
2022/02/16 05:09:00;;;;;;;;;0.00;0.00;;;;;;;;5078232;27;45721;-92
2022/02/16 05:11:25;;;;;;;;;0.00;0.00;;;;;;;;5082030;27;48059;-93
2022/02/16 05:13:50;;;;;;;;;0.00;0.00;;;;;;;;5080960;27;45678;-91
2022/02/16 05:16:16;;;;;;;;;0.00;0.00;;;;;;;;5085670;27;44854;-93
2022/02/16 05:18:41;;;;;;;;;0.00;0.00;;;;;;;;5084398;27;45378;-93
2022/02/16 05:21:06;;;;;;;;;0.00;0.00;;;;;;;;5086153;27;47425;-94
2022/02/16 05:23:31;;;;;;;;;0.00;0.00;;;;;;;;5089408;27;45296;-93
2022/02/16 05:25:57;;;;;;;;;0.00;0.00;;;;;;;;5074828;27;45277;-92
2022/02/16 05:28:22;;;;;;;;;0.00;0.00;;;;;;;;5078255;27;45438;-93
2022/02/16 05:30:47;;;;;;;;;0.00;0.00;;;;;;;;5078555;27;47121;-93
2022/02/16 05:33:13;;;;;;;;;0.00;0.00;;;;;;;;5077361;27;45355;-93
2022/02/16 05:35:38;;;;;;;;;0.00;0.00;;;;;;;;5082748;27;45382;-94
2022/02/16 05:38:03;;;;;;;;;0.00;0.00;;;;;;;;5095945;27;45703;-94
2022/02/16 05:40:28;;;;;;;;;0.00;0.00;;;;;;;;5078607;27;48220;-94
2022/02/16 05:42:54;;;;;;;;;0.00;0.00;;;;;;;;5077329;27;45909;-94
2022/02/16 05:45:19;;;;;;;;;0.00;0.00;;;;;;;;5075003;28;45532;-93
2022/02/16 05:47:44;;;;;;;;;0.00;0.00;;;;;;;;5085349;27;45511;-93
2022/02/16 05:50:10;;;;;;;;;0.00;0.00;;;;;;;;5078264;27;47026;-95
2022/02/16 05:52:36;;;;;;;;;0.00;0.00;;;;;;;;5078707;27;46030;-94
2022/02/16 05:55:02;;;;;;;;;1.00;0.00;;;;;;;;5089228;27;45556;-94
2022/02/16 05:57:28;;;;;;;;;0.00;0.00;;;;;;;;5078959;27;45516;-94
2022/02/16 05:59:53;;;;;;;;;0.00;0.00;;;;;;;;5078416;27;48522;-93
2022/02/16 06:02:18;;;;;;;;;0.00;0.00;;;;;;;;5083287;27;45998;-91
2022/02/16 06:04:44;;;;;;;;;0.00;0.00;;;;;;;;5086444;27;45462;-95
2022/02/16 06:07:09;;;;;;;;;0.00;0.00;;;;;;;;5084988;27;45362;-94
2022/02/16 06:09:34;;;;;;;;;0.00;0.00;;;;;;;;5081097;27;47068;-94
2022/02/16 06:11:59;;;;;;;;;0.00;0.00;;;;;;;;5077940;27;45746;-94
2022/02/16 06:14:25;;;;;;;;;0.00;0.00;;;;;;;;5096621;27;45406;-94
2022/02/16 06:16:50;;;;;;;;;0.00;0.00;;;;;;;;5076720;27;45450;-94
2022/02/16 06:19:15;;;;;;;;;2.33;0.00;;;;;;;;5077575;27;47195;-94
2022/02/16 06:21:41;;;;;;;;;0.00;0.00;;;;;;;;5078608;27;45284;-93
2022/02/16 06:24:07;;;;;;;;;0.00;0.00;;;;;;;;5078531;27;45364;-94
2022/02/16 06:26:32;;;;;;;;;0.00;0.00;;;;;;;;5073660;28;45470;-94
2022/02/16 06:28:57;;;;;;;;;0.00;0.00;;;;;;;;5078243;27;47274;-94
2022/02/16 06:31:23;;;;;;;;;0.00;0.00;;;;;;;;5097732;27;45595;-94
2022/02/16 06:33:48;;;;;;;;;0.00;0.00;;;;;;;;5080007;27;45656;-94
2022/02/16 06:36:13;;;;;;;;;0.00;0.00;;;;;;;;5076685;27;45342;-94
2022/02/16 06:38:39;;;;;;;;;0.00;0.00;;;;;;;;5081208;27;47436;-94
2022/02/16 06:41:06;;;;;;;;;1.00;0.00;;;;;;;;5088136;27;45751;-95
2022/02/16 06:43:32;;;;;;;;;0.00;0.00;;;;;;;;5077801;27;45336;-93
2022/02/16 06:45:57;;;;;;;;;0.00;0.00;;;;;;;;5099139;27;45330;-93
2022/02/16 06:48:22;;;;;;;;;0.00;0.00;;;;;;;;5087091;27;47018;-94
2022/02/16 06:50:47;;;;;;;;;0.00;0.00;;;;;;;;5080457;27;45666;-94
2022/02/16 06:53:13;;;;;;;;;0.00;0.00;;;;;;;;5085236;27;45470;-95
2022/02/16 06:55:38;;;;;;;;;0.00;0.00;;;;;;;;5094170;27;45586;-95
2022/02/16 06:58:03;;;;;;;;;0.00;0.00;;;;;;;;5076832;27;47695;-94
2022/02/16 07:00:28;;;;;;;;;0.00;0.00;;;;;;;;5088200;27;45410;-94
2022/02/16 07:02:54;;;;;;;;;0.00;0.00;;;;;;;;5075257;27;45311;-94
2022/02/16 07:05:19;;;;;;;;;0.00;0.00;;;;;;;;5084384;27;45446;-95
2022/02/16 07:07:44;;;;;;;;;0.00;0.00;;;;;;;;5079921;27;48262;-94
2022/02/16 07:10:10;;;;;;;;;1.00;0.00;;;;;;;;5101093;27;45392;-94
2022/02/16 07:12:38;;;;;;;;;0.33;0.00;;;;;;;;5081231;27;45227;-94
2022/02/16 07:15:11;;;;;;;;;0.00;0.00;;;;;;;;5080371;27;45359;-96
2022/02/16 07:17:36;;;;;;;;;0.00;0.00;;;;;;;;5079944;27;47396;-93
2022/02/16 07:20:01;;;;;;;;;0.00;0.00;;;;;;;;5064239;27;46335;-93
2022/02/16 07:22:27;;;;;;;;;0.00;0.00;;;;;;;;5079488;27;45304;-93
2022/02/16 07:24:52;;;;;;;;;0.00;0.00;;;;;;;;5075540;27;45572;-84
2022/02/16 07:27:18;;;;;;;;;0.00;0.00;;;;;;;;5090506;27;46395;-86
2022/02/16 07:29:43;;;;;;;;;0.00;0.00;;;;;;;;5095126;27;45492;-86
2022/02/16 07:32:08;;;;;;;;;0.00;0.00;;;;;;;;5091611;27;45469;-87
2022/02/16 07:34:34;;;;;;;;;0.00;0.00;;;;;;;;5096263;27;45368;-86
2022/02/16 07:37:00;;;;;;;;;0.00;0.00;;;;;;;;5083273;27;47516;-84
2022/02/16 07:39:27;;;;;;;;;0.00;0.00;;;;;;;;5090332;27;45846;-91
2022/02/16 07:41:53;;;;;;;;;0.00;0.00;;;;;;;;5068360;27;45388;-92
2022/02/16 07:44:18;;;;;;;;;0.00;0.00;;;;;;;;5092852;27;45498;-92
2022/02/16 07:46:44;;;;;;;;;0.00;0.00;;;;;;;;5096656;27;46405;-92
2022/02/16 07:49:09;;;;;;;;;0.67;0.00;;;;;;;;5077734;27;45355;-92
2022/02/16 07:51:34;;;;;;;;;1.00;0.00;;;;;;;;5094439;27;45304;-92
2022/02/16 07:53:59;;;;;;;;;0.00;0.00;;;;;;;;5072329;27;45705;-91
2022/02/16 07:56:24;;;;;;;;;0.00;0.00;;;;;;;;5074256;27;47858;-92
2022/02/16 07:58:50;;;;;;;;;0.00;0.00;;;;;;;;5070642;27;46557;-91
2022/02/16 08:01:15;;;;;;;;;0.00;0.00;;;;;;;;5080636;27;45614;-91
2022/02/16 08:03:41;;;;;;;;;0.00;0.00;;;;;;;;5092212;27;45444;-90
2022/02/16 08:06:06;;;;;;;;;0.00;0.00;;;;;;;;5096919;27;45456;-90
2022/02/16 08:08:31;;;;;;;;;0.00;0.00;;;;;;;;5105462;27;46203;-90
2022/02/16 08:10:57;;;;;;;;;0.00;0.00;;;;;;;;5091964;27;45547;-89
2022/02/16 08:13:22;;;;;;;;;0.00;0.00;;;;;;;;5091676;27;45446;-91
2022/02/16 08:15:48;;;;;;;;;0.00;0.00;;;;;;;;5098942;27;50611;-91
2022/02/16 08:18:16;;;;;;;;;1.33;0.67;;;;;;;;5088434;27;45537;-92
2022/02/16 08:20:41;;;;;;;;;0.00;0.00;;;;;;;;5074853;27;45433;-92
2022/02/16 08:23:07;;;;;;;;;1.00;0.33;;;;;;;;5064279;27;45513;-91
2022/02/16 08:25:32;;;;;;;;;1.00;0.00;;;;;;;;5090652;27;46067;-90
2022/02/16 08:27:57;;;;;;;;;0.00;0.00;;;;;;;;5075330;27;45522;-92
2022/02/16 08:30:22;;;;;;;;;0.00;0.00;;;;;;;;5073025;27;45515;-92
2022/02/16 08:32:49;;;;;;;;;0.00;0.00;;;;;;;;5074714;27;45605;-91
2022/02/16 08:35:14;;;;;;;;;0.00;0.00;;;;;;;;5082483;27;45640;-92
2022/02/16 08:37:40;;;;;;;;;0.00;0.00;;;;;;;;5083754;27;45378;-91
2022/02/16 08:40:07;;;;;;;;;0.67;0.00;;;;;;;;5087638;27;46072;-91
2022/02/16 08:42:32;;;;;;;;;0.00;0.00;;;;;;;;5079011;27;45562;-92
2022/02/16 08:44:58;;;;;;;;;0.00;0.00;;;;;;;;5091145;27;45539;-88
2022/02/16 08:47:23;;;;;;;;;0.00;0.00;;;;;;;;5096573;27;45608;-86
2022/02/16 08:49:49;;;;;;;;;0.00;0.00;;;;;;;;5101248;27;45444;-86
2022/02/16 08:52:14;;;;;;;;;2.00;0.00;;;;;;;;5099784;27;45496;-85
2022/02/16 08:54:39;;;;;;;;;1.00;0.67;;;;;;;;5081004;27;46178;-86
2022/02/16 08:57:05;;;;;;;;;0.00;0.00;;;;;;;;5071416;27;45966;-86
2022/02/16 08:59:30;;;;;;;;;0.00;0.00;;;;;;;;5094721;27;45609;-86
2022/02/16 09:01:56;;;;;;;;;1.00;0.00;;;;;;;;5079024;27;45843;-85
2022/02/16 09:04:21;;;;;;;;;0.00;0.00;;;;;;;;5078328;27;48136;-85
2022/02/16 09:07:27;;;;;;;;;0.00;0.00;;;;;;;;5076579;27;45509;-86
2022/02/16 09:09:33;;;;;;;;;0.00;0.00;;;;;;;;5098691;27;45549;-87
2022/02/16 09:11:59;;;;;;;;;0.00;0.00;;;;;;;;5086255;27;45379;-86
2022/02/16 09:14:24;;;;;;;;;1.33;1.00;;;;;;;;5080282;27;48154;-85
2022/02/16 09:16:49;;;;;;;;;0.00;0.00;;;;;;;;5070318;27;45477;-85
2022/02/16 09:19:15;;;;;;;;;0.00;0.00;;;;;;;;5095102;27;45881;-85
2022/02/16 09:21:40;;;;;;;;;1.33;0.00;;;;;;;;5105827;27;45449;-85
2022/02/16 09:24:05;;;;;;;;;0.00;0.00;;;;;;;;5095779;27;45563;-85
2022/02/16 09:26:32;;;;;;;;;1.00;1.00;;;;;;;;5066827;27;45639;-84
2022/02/16 09:28:58;;;;;;;;;0.00;0.00;;;;;;;;5090655;27;45459;-85
2022/02/16 09:31:23;;;;;;;;;0.00;0.00;;;;;;;;5092087;27;45521;-85
2022/02/16 09:33:48;;;;;;;;;1.00;1.00;;;;;;;;5102220;27;45425;-85
2022/02/16 09:36:13;;;;;;;;;0.00;0.00;;;;;;;;5102594;27;45307;-85
2022/02/16 09:38:39;;;;;;;;;0.00;0.00;;;;;;;;5102156;27;45887;-85
2022/02/16 09:41:06;;;;;;;;;0.33;0.33;;;;;;;;5088259;27;45908;-85
2022/02/16 09:43:31;;;;;;;;;1.33;1.00;;;;;;;;5080686;27;47442;-85
2022/02/16 09:45:58;;;;;;;;;0.00;0.00;;;;;;;;5092304;27;45705;-85
2022/02/16 09:48:24;;;;;;;;;0.00;0.00;;;;;;;;5093953;27;45585;-85
2022/02/16 09:50:49;;;;;;;;;0.00;0.00;;;;;;;;5091337;27;45551;-85
2022/02/16 09:53:14;;;;;;;;;0.00;0.00;;;;;;;;5089658;27;45542;-85
2022/02/16 09:55:40;;;;;;;;;0.00;0.00;;;;;;;;5098422;27;45681;-85
2022/02/16 09:58:05;;;;;;;;;0.00;0.00;;;;;;;;5093377;27;45437;-85
2022/02/16 10:00:30;;;;;;;;;1.00;0.00;;;;;;;;5089912;27;45436;-86
2022/02/16 10:02:55;;;;;;;;;0.33;0.33;;;;;;;;5090776;27;46716;-85
2022/02/16 10:05:20;;;;;;;;;1.00;0.00;;;;;;;;5090307;27;45395;-85
2022/02/16 10:07:47;;;;;;;;;0.00;0.00;;;;;;;;5095741;27;45406;-85
2022/02/16 10:10:15;;;;;;;;;0.00;0.00;;;;;;;;5095095;27;45477;-85
2022/02/16 10:12:44;;;;;;;;;1.00;1.00;;;;;;;;5098528;27;46333;-85
2022/02/16 10:15:10;;;;;;;;;0.00;0.00;;;;;;;;5085825;27;45417;-85
2022/02/16 10:17:35;;;;;;;;;0.00;0.00;;;;;;;;5081703;27;45393;-85
2022/02/16 10:20:03;;;;;;;;;0.00;0.00;;;;;;;;5094534;27;45360;-85
2022/02/16 10:22:39;;;;;;;;;0.00;0.00;;;;;;;;5109417;27;45338;-86
2022/02/16 10:25:21;;;;;;;;;0.00;0.00;;;;;;;;5076037;27;45976;-85
2022/02/16 10:28:05;;;;;;;;;0.00;0.00;;;;;;;;5093652;27;45367;-85
2022/02/16 10:30:30;;;;;;;;;0.00;0.00;;;;;;;;5078657;27;45392;-86
2022/02/16 10:33:14;;;;;;;;;1.00;0.67;;;;;;;;5097926;27;45585;-85
2022/02/16 10:35:39;;;;;;;;;0.67;0.67;;;;;;;;5078869;27;46016;-86
2022/02/16 10:38:04;;;;;;;;;1.00;1.00;;;;;;;;5072942;27;46112;-86
2022/02/16 10:40:30;;;;;;;;;1.67;0.67;;;;;;;;5114746;27;45407;-85
2022/02/16 10:42:56;;;;;;;;;3.33;1.00;;;;;;;;5080292;27;47185;-84
2022/02/16 10:45:23;;;;;;;;;3.00;1.00;;;;;;;;5093848;27;45639;-84
2022/02/16 10:47:56;;;;;;;;;0.00;0.00;;;;;;;;5075143;27;45344;-85
2022/02/16 10:50:22;;;;;;;;;0.00;0.00;;;;;;;;5108847;27;45303;-84
2022/02/16 10:53:08;;;;;;;;;0.00;0.00;;;;;;;;5097381;27;46594;-83
2022/02/16 10:55:41;;;;;;;;;1.00;1.00;;;;;;;;5080538;27;46344;-85
2022/02/16 10:58:07;;;;;;;;;0.00;0.00;;;;;;;;5073852;27;45624;-84
2022/02/16 11:00:36;;;;;;;;;0.00;0.00;;;;;;;;5101551;27;45654;-85
2022/02/16 11:03:02;;;;;;;;;2.33;0.00;;;;;;;;5080498;27;47388;-85
2022/02/16 11:05:29;;;;;;;;;0.67;0.33;;;;;;;;5074632;27;45514;-85
2022/02/16 11:07:55;;;;;;;;;0.67;0.00;;;;;;;;5078004;27;45914;-84
2022/02/16 11:10:21;;;;;;;;;2.33;1.00;;;;;;;;5081188;27;45323;-85
2022/02/16 11:12:46;;;;;;;;;0.67;0.67;;;;;;;;5095765;27;45618;-84
2022/02/16 11:15:12;;;;;;;;;0.00;0.00;;;;;;;;5075262;27;45909;-86
2022/02/16 11:17:38;;;;;;;;;0.00;0.00;;;;;;;;5077608;27;45273;-85
2022/02/16 11:20:16;;;;;;;;;0.00;0.00;;;;;;;;5106337;27;45332;-84
2022/02/16 11:22:57;;;;;;;;;0.67;0.33;;;;;;;;5057879;27;47387;-84
2022/02/16 11:25:25;;;;;;;;;0.00;0.00;;;;;;;;5084398;27;45449;-84
2022/02/16 11:27:52;;;;;;;;;1.00;1.00;;;;;;;;5095976;27;45774;-84
2022/02/16 11:30:34;;;;;;;;;1.00;1.00;;;;;;;;5105889;27;45423;-85
2022/02/16 11:33:13;;;;;;;;;2.00;1.00;;;;;;;;5106803;27;45788;-84
2022/02/16 11:35:50;;;;;;;;;0.33;0.33;;;;;;;;5096308;27;45433;-83
2022/02/16 11:38:17;;;;;;;;;1.00;1.00;;;;;;;;5058962;27;45319;-83
2022/02/16 11:41:00;;;;;;;;;1.00;0.67;;;;;;;;5100266;27;45496;-84
2022/02/16 11:43:45;;;;;;;;;0.67;0.00;;;;;;;;5096361;27;47661;-84
2022/02/16 11:46:30;;;;;;;;;1.00;1.00;;;;;;;;5077898;27;45388;-84
2022/02/16 11:48:56;;;;;;;;;0.00;0.00;;;;;;;;5088577;27;47992;-84
2022/02/16 11:51:33;;;;;;;;;0.00;0.00;;;;;;;;5094162;27;45799;-84
2022/02/16 11:54:18;;;;;;;;;0.00;0.00;;;;;;;;5074606;27;46555;-84
2022/02/16 11:56:43;;;;;;;;;0.00;0.00;;;;;;;;5096374;27;45461;-84
2022/02/16 11:59:11;;;;;;;;;0.00;0.00;;;;;;;;5092976;27;45382;-84
2022/02/16 12:01:56;;;;;;;;;0.00;0.00;;;;;;;;5075072;27;48176;-83
2022/02/16 12:04:29;;;;;;;;;0.00;0.00;;;;;;;;5079940;27;47448;-84
2022/02/16 12:07:14;;;;;;;;;0.00;0.00;;;;;;;;5081938;27;46068;-83
2022/02/16 12:09:40;;;;;;;;;0.00;0.00;;;;;;;;5080404;27;45422;-84
2022/02/16 12:12:11;;;;;;;;;0.33;0.00;;;;;;;;5095752;27;45542;-84
2022/02/16 12:14:37;;;;;;;;;0.00;0.00;;;;;;;;5078978;27;47352;-84
2022/02/16 12:17:02;;;;;;;;;1.00;1.00;;;;;;;;5075321;27;45717;-83
2022/02/16 12:19:28;;;;;;;;;1.00;0.00;;;;;;;;5098091;27;45457;-84
2022/02/16 12:21:53;;;;;;;;;0.67;0.00;;;;;;;;5098056;27;45552;-84
2022/02/16 12:24:22;;;;;;;;;0.00;0.00;;;;;;;;5098084;27;47438;-84
2022/02/16 12:26:51;;;;;;;;;1.67;1.00;;;;;;;;5104040;27;45470;-84
2022/02/16 12:29:18;;;;;;;;;1.00;1.00;;;;;;;;5110041;27;45362;-84
2022/02/16 12:31:44;;;;;;;;;0.00;0.00;;;;;;;;5098835;27;45301;-84
2022/02/16 12:34:14;;;;;;;;;0.00;0.00;;;;;;;;5107191;27;45743;-84
2022/02/16 12:36:43;;;;;;;;;0.00;0.00;;;;;;;;5102427;27;45665;-84
2022/02/16 12:39:09;;;;;;;;;0.00;0.00;;;;;;;;5104513;27;45363;-84
2022/02/16 12:41:35;;;;;;;;;0.00;0.00;;;;;;;;5089660;27;45509;-84
2022/02/16 12:44:07;;;;;;;;;0.33;0.00;;;;;;;;5082389;27;47219;-84
2022/02/16 12:46:34;;;;;;;;;1.00;1.00;;;;;;;;5092568;27;45382;-84
2022/02/16 12:49:00;;;;;;;;;0.33;0.33;;;;;;;;5080318;27;45824;-84
2022/02/16 12:51:27;;;;;;;;;0.00;0.00;;;;;;;;5095245;27;45640;-84
2022/02/16 12:53:52;;;;;;;;;0.00;0.00;;;;;;;;5092764;27;45613;-84
2022/02/16 12:56:18;;;;;;;;;1.00;0.00;;;;;;;;5085918;27;45601;-84
2022/02/16 12:58:43;;;;;;;;;3.00;1.00;;;;;;;;5083085;27;45651;-84
2022/02/16 13:01:08;;;;;;;;;0.00;0.00;;;;;;;;5060683;27;45630;-84
2022/02/16 13:03:34;;;;;;;;;1.00;0.00;;;;;;;;5060558;27;47973;-85
2022/02/16 13:06:01;;;;;;;;;0.33;0.33;;;;;;;;5060327;27;45573;-84
2022/02/16 13:08:27;;;;;;;;;0.00;0.00;;;;;;;;5078660;27;45588;-85
2022/02/16 13:10:54;;;;;;;;;1.33;0.00;;;;;;;;5060974;27;45551;-84
2022/02/16 13:13:21;;;;;;;;;0.00;0.00;;;;;;;;5067057;27;46505;-84
2022/02/16 13:15:47;;;;;;;;;0.00;0.00;;;;;;;;5066666;27;46010;-85
2022/02/16 13:18:13;;;;;;;;;0.33;0.33;;;;;;;;5063665;27;45675;-85
2022/02/16 13:20:42;;;;;;;;;0.00;0.00;;;;;;;;5083948;27;45461;-85
2022/02/16 13:23:18;;;;;;;;;0.00;0.00;;;;;;;;5081062;27;46258;-84
2022/02/16 13:25:44;;;;;;;;;0.00;0.00;;;;;;;;5082902;27;45672;-85
2022/02/16 13:28:11;;;;;;;;;1.00;1.00;;;;;;;;5080702;27;45517;-85
2022/02/16 13:30:38;;;;;;;;;0.00;0.00;;;;;;;;5078565;27;45662;-86
2022/02/16 13:33:24;;;;;;;;;0.00;0.00;;;;;;;;5061413;27;51817;-85
2022/02/16 13:35:53;;;;;;;;;0.00;0.00;;;;;;;;5076691;27;45524;-84
2022/02/16 13:38:29;;;;;;;;;0.00;0.00;;;;;;;;5080643;27;45435;-84
2022/02/16 13:41:09;;;;;;;;;1.00;1.00;;;;;;;;5090092;27;45562;-84
2022/02/16 13:43:51;;;;;;;;;0.33;0.00;;;;;;;;5090751;27;47528;-85
2022/02/16 13:46:28;;;;;;;;;0.00;0.00;;;;;;;;5097235;27;47550;-83
2022/02/16 13:49:06;;;;;;;;;0.00;0.00;;;;;;;;5077644;27;45679;-84
2022/02/16 13:51:31;;;;;;;;;1.00;0.00;;;;;;;;5098776;27;45518;-85
2022/02/16 13:53:57;;;;;;;;;0.00;0.00;;;;;;;;5082660;27;47531;-84
2022/02/16 13:56:23;;;;;;;;;0.00;0.00;;;;;;;;5097440;27;45539;-84
2022/02/16 13:58:48;;;;;;;;;0.00;0.00;;;;;;;;5088096;27;45285;-84
2022/02/16 14:01:18;;;;;;;;;0.00;0.00;;;;;;;;5075035;27;45398;-84
2022/02/16 14:04:00;;;;;;;;;1.00;1.00;;;;;;;;5095541;27;45531;-85
2022/02/16 14:06:25;;;;;;;;;0.00;0.00;;;;;;;;5097218;27;45439;-85
2022/02/16 14:08:50;;;;;;;;;0.00;0.00;;;;;;;;5075066;27;45477;-84
2022/02/16 14:11:20;;;;;;;;;0.00;0.00;;;;;;;;5082657;27;45425;-85
2022/02/16 14:13:45;;;;;;;;;0.00;0.00;;;;;;;;5095668;27;46459;-84
2022/02/16 14:16:10;;;;;;;;;0.00;0.00;;;;;;;;5098701;27;45397;-84
2022/02/16 14:18:35;;;;;;;;;0.00;0.00;;;;;;;;5091278;27;45395;-86
2022/02/16 14:21:03;;;;;;;;;3.00;0.00;;;;;;;;5097734;27;45494;-85
2022/02/16 14:23:30;;;;;;;;;0.67;0.00;;;;;;;;5075318;27;46190;-85
2022/02/16 14:25:57;;;;;;;;;2.00;1.00;;;;;;;;5075104;27;45548;-85
2022/02/16 14:28:22;;;;;;;;;2.00;0.00;;;;;;;;5098273;27;45520;-85
2022/02/16 14:30:47;;;;;;;;;0.00;0.00;;;;;;;;5092274;27;45570;-85
2022/02/16 14:33:12;;;;;;;;;0.00;0.00;;;;;;;;5093936;27;45587;-84
2022/02/16 14:35:37;;;;;;;;;0.00;0.00;;;;;;;;5073281;27;46102;-85
2022/02/16 14:38:03;;;;;;;;;1.00;1.00;;;;;;;;5084824;27;45640;-85
2022/02/16 14:40:28;;;;;;;;;1.00;1.00;;;;;;;;5063244;28;45539;-85